Time;durP1;ratioP1;P1;durP2;ratioP2;P2;SDS_P1;SDS_P2;PMS_P1;PMS_P2;Temp;Humidity;BMP_temperature;BMP_pressure;BME280_temperature;BME280_humidity;BME280_pressure;Samples;Min_cycle;Max_cycle;Signal;HPM_P1;HPM_P2
2022/12/14 00:01:15;;;;;;;0.00;0.00;;;;;;;-3.24;100.00;97288.13;4957608;28;20234;-52
2022/12/14 00:03:41;;;;;;;0.00;0.00;;;;;;;-3.22;100.00;97288.84;4955366;28;20222;-53
2022/12/14 00:06:15;;;;;;;0.00;0.00;;;;;;;-3.22;100.00;97281.19;4957589;28;20247;-52
2022/12/14 00:08:42;;;;;;;0.00;0.00;;;;;;;-3.21;100.00;97285.38;4951012;28;20278;-53
2022/12/14 00:11:10;;;;;;;0.00;0.00;;;;;;;-3.14;100.00;97271.28;4954572;28;20715;-55
2022/12/14 00:13:37;;;;;;;0.07;0.07;;;;;;;-3.08;100.00;97265.00;4953788;28;20245;-54
2022/12/14 00:16:08;;;;;;;0.00;0.00;;;;;;;-3.02;100.00;97258.66;4956274;28;20234;-54
2022/12/14 00:18:36;;;;;;;0.00;0.00;;;;;;;-3.07;100.00;97253.03;4954102;28;20289;-53
2022/12/14 00:21:04;;;;;;;0.03;0.03;;;;;;;-3.07;100.00;97256.41;4956265;28;20235;-53
2022/12/14 00:23:33;;;;;;;0.10;0.10;;;;;;;-3.07;100.00;97261.50;4954791;28;20242;-53
2022/12/14 00:26:07;;;;;;;0.10;0.10;;;;;;;-3.02;100.00;97259.50;4957630;28;20248;-55
2022/12/14 00:28:33;;;;;;;0.00;0.00;;;;;;;-2.99;100.00;97261.00;4954250;28;20237;-54
2022/12/14 00:31:00;;;;;;;0.00;0.00;;;;;;;-2.91;100.00;97260.53;4957240;28;20266;-53
2022/12/14 00:33:26;;;;;;;0.00;0.00;;;;;;;-2.95;100.00;97254.78;4958135;28;20836;-54
2022/12/14 00:35:53;;;;;;;0.00;0.00;;;;;;;-2.97;100.00;97270.22;4954544;28;20226;-52
2022/12/14 00:38:20;;;;;;;0.00;0.00;;;;;;;-3.01;100.00;97260.28;4958552;28;20682;-51
2022/12/14 00:40:48;;;;;;;0.00;0.00;;;;;;;-2.92;100.00;97262.25;4958236;28;20234;-51
2022/12/14 00:43:15;;;;;;;0.10;0.10;;;;;;;-2.97;100.00;97265.13;4960509;28;20644;-53
2022/12/14 00:45:43;;;;;;;0.03;0.03;;;;;;;-2.97;100.00;97257.44;4958651;28;20234;-52
2022/12/14 00:48:10;;;;;;;0.00;0.00;;;;;;;-2.92;100.00;97261.44;4962287;28;20225;-52
2022/12/14 00:50:39;;;;;;;0.07;0.07;;;;;;;-2.95;100.00;97256.53;4958746;28;20252;-53
2022/12/14 00:53:08;;;;;;;0.10;0.10;;;;;;;-3.00;100.00;97255.09;4958932;28;20243;-54
2022/12/14 00:55:39;;;;;;;0.00;0.00;;;;;;;-2.94;100.00;97251.31;4958165;28;20854;-53
2022/12/14 00:58:08;;;;;;;0.00;0.00;;;;;;;-2.88;100.00;97256.03;4956882;28;20313;-53
2022/12/14 01:00:34;;;;;;;0.00;0.00;;;;;;;-2.87;100.00;97252.56;4958815;28;20223;-54
2022/12/14 01:03:01;;;;;;;0.00;0.00;;;;;;;-2.90;100.00;97242.53;4960331;28;20647;-53
2022/12/14 01:05:28;;;;;;;0.00;0.00;;;;;;;-2.88;100.00;97234.78;4959226;28;20698;-52
2022/12/14 01:07:55;;;;;;;0.10;0.10;;;;;;;-2.85;100.00;97232.84;4957707;28;20596;-54
2022/12/14 01:10:24;;;;;;;0.00;0.00;;;;;;;-2.95;100.00;97239.47;4959150;28;20251;-52
2022/12/14 01:12:50;;;;;;;0.00;0.00;;;;;;;-2.91;100.00;97243.47;4957222;28;20235;-53
2022/12/14 01:15:18;;;;;;;0.00;0.00;;;;;;;-2.95;100.00;97242.03;4960072;28;20227;-52
2022/12/14 01:17:45;;;;;;;0.00;0.00;;;;;;;-2.92;100.00;97239.25;4958264;28;20270;-52
2022/12/14 01:20:12;;;;;;;0.07;0.07;;;;;;;-2.98;100.00;97245.59;4963146;28;20578;-54
2022/12/14 01:22:38;;;;;;;0.00;0.00;;;;;;;-3.02;100.00;97246.72;4957856;28;20227;-53
2022/12/14 01:25:06;;;;;;;0.00;0.00;;;;;;;-3.05;100.00;97246.09;4960166;28;20258;-52
2022/12/14 01:27:32;;;;;;;0.00;0.00;;;;;;;-3.09;100.00;97250.59;4959403;28;20239;-52
2022/12/14 01:29:59;;;;;;;0.00;0.00;;;;;;;-3.06;100.00;97244.44;4962574;28;20231;-52
2022/12/14 01:32:27;;;;;;;0.00;0.00;;;;;;;-3.09;100.00;97249.75;4961991;28;20226;-52
2022/12/14 01:34:53;;;;;;;0.00;0.00;;;;;;;-3.02;100.00;97243.34;4956866;28;20297;-53
2022/12/14 01:37:20;;;;;;;0.00;0.00;;;;;;;-3.00;100.00;97231.28;4961122;28;20246;-52
2022/12/14 01:39:47;;;;;;;0.00;0.00;;;;;;;-3.03;100.00;97211.91;4956485;28;20238;-52
2022/12/14 01:42:15;;;;;;;0.00;0.00;;;;;;;-2.97;100.00;97218.31;4961971;28;20238;-52
2022/12/14 01:44:56;;;;;;;0.00;0.00;;;;;;;-2.96;100.00;97217.41;4956409;28;20234;-54
2022/12/14 01:47:29;;;;;;;0.10;0.10;;;;;;;-2.90;100.00;97222.13;4961664;28;20226;-53
2022/12/14 01:50:00;;;;;;;0.00;0.00;;;;;;;-2.96;100.00;97235.28;4957709;28;20226;-52
2022/12/14 01:52:33;;;;;;;0.10;0.10;;;;;;;-2.92;100.00;97233.34;4959669;28;21172;-52
2022/12/14 01:55:04;;;;;;;0.00;0.00;;;;;;;-2.88;100.00;97234.78;4956864;28;20234;-54
2022/12/14 01:57:36;;;;;;;0.00;0.00;;;;;;;-2.87;100.00;97239.78;4956957;28;20641;-52
2022/12/14 02:00:04;;;;;;;0.03;0.03;;;;;;;-2.91;100.00;97223.03;4960344;28;20561;-53
2022/12/14 02:02:32;;;;;;;0.00;0.00;;;;;;;-2.95;100.00;97234.34;4955374;28;20713;-54
2022/12/14 02:05:02;;;;;;;0.00;0.00;;;;;;;-2.94;100.00;97222.44;4958504;28;20323;-52
2022/12/14 02:07:30;;;;;;;0.00;0.00;;;;;;;-2.94;100.00;97204.56;4956387;28;20293;-54
2022/12/14 02:10:01;;;;;;;0.00;0.00;;;;;;;-2.87;100.00;97204.03;4961024;28;20575;-52
2022/12/14 02:12:31;;;;;;;0.00;0.00;;;;;;;-2.83;100.00;97210.56;4959663;28;20234;-53
2022/12/14 02:14:58;;;;;;;0.00;0.00;;;;;;;-2.77;100.00;97217.03;4957915;28;20853;-54
2022/12/14 02:17:26;;;;;;;0.00;0.00;;;;;;;-2.85;100.00;97212.41;4959595;28;20564;-52
2022/12/14 02:19:56;;;;;;;0.00;0.00;;;;;;;-2.86;100.00;97204.88;4956586;28;20294;-53
2022/12/14 02:22:59;;;;;;;0.00;0.00;;;;;;;-2.81;100.00;97205.38;4960128;28;20227;-52
2022/12/14 02:25:58;;;;;;;0.00;0.00;;;;;;;-2.80;100.00;97218.94;4957270;28;20221;-52
2022/12/14 02:29:00;;;;;;;0.07;0.07;;;;;;;-2.86;100.00;97223.53;4956010;28;20238;-53
2022/12/14 02:31:36;;;;;;;0.00;0.00;;;;;;;-2.89;100.00;97210.97;4955631;28;20247;-54
2022/12/14 02:34:10;;;;;;;0.00;0.00;;;;;;;-2.89;100.00;97205.88;4958340;28;20605;-54
2022/12/14 02:36:45;;;;;;;0.00;0.00;;;;;;;-2.86;100.00;97190.34;4956035;28;20236;-52
2022/12/14 02:39:19;;;;;;;0.00;0.00;;;;;;;-2.80;100.00;97188.31;4957359;28;20222;-52
2022/12/14 02:41:59;;;;;;;0.10;0.10;;;;;;;-2.77;100.00;97196.59;4957579;28;20246;-52
2022/12/14 02:44:34;;;;;;;0.10;0.10;;;;;;;-2.73;100.00;97186.97;4958986;28;20223;-52
2022/12/14 02:47:08;;;;;;;0.00;0.00;;;;;;;-2.71;100.00;97188.53;4956197;28;20707;-52
2022/12/14 02:49:52;;;;;;;0.00;0.00;;;;;;;-2.64;100.00;97193.19;4955201;28;20286;-52
2022/12/14 02:52:29;;;;;;;0.00;0.00;;;;;;;-2.63;100.00;97199.94;4959984;28;20253;-52
2022/12/14 02:55:01;;;;;;;0.00;0.00;;;;;;;-2.63;100.00;97184.59;4954924;28;20654;-53
2022/12/14 02:57:32;;;;;;;0.00;0.00;;;;;;;-2.60;100.00;97190.34;4959071;28;20261;-51
2022/12/14 03:00:02;;;;;;;0.00;0.00;;;;;;;-2.64;100.00;97186.34;4955421;28;20680;-54
2022/12/14 03:02:33;;;;;;;0.00;0.00;;;;;;;-2.66;100.00;97188.19;4963538;28;20696;-53
2022/12/14 03:05:02;;;;;;;0.10;0.10;;;;;;;-2.58;100.00;97187.66;4962806;28;20561;-52
2022/12/14 03:07:41;;;;;;;0.00;0.00;;;;;;;-2.66;100.00;97188.19;4961509;28;20228;-55
2022/12/14 03:10:18;;;;;;;0.00;0.00;;;;;;;-2.72;100.00;97188.63;4966471;28;20236;-52
2022/12/14 03:12:54;;;;;;;0.00;0.00;;;;;;;-2.69;100.00;97188.41;4961907;28;20239;-54
2022/12/14 03:15:24;;;;;;;0.10;0.10;;;;;;;-2.68;100.00;97188.31;4965999;28;20645;-52
2022/12/14 03:17:57;;;;;;;0.00;0.00;;;;;;;-2.63;100.00;97184.59;4962636;28;20247;-53
2022/12/14 03:20:26;;;;;;;0.00;0.00;;;;;;;-2.60;100.00;97184.41;4965696;28;20306;-52
2022/12/14 03:22:57;;;;;;;0.00;0.00;;;;;;;-2.66;100.00;97177.97;4963196;28;20600;-52
2022/12/14 03:25:29;;;;;;;0.00;0.00;;;;;;;-2.71;100.00;97172.38;4965889;28;20595;-53
2022/12/14 03:28:01;;;;;;;0.00;0.00;;;;;;;-2.73;100.00;97158.88;4962372;28;20236;-52
2022/12/14 03:30:30;;;;;;;0.10;0.10;;;;;;;-2.70;100.00;97153.56;4964931;28;20274;-52
2022/12/14 03:33:03;;;;;;;0.00;0.00;;;;;;;-2.72;100.00;97145.19;4962625;28;20348;-52
2022/12/14 03:35:34;;;;;;;0.10;0.10;;;;;;;-2.71;100.00;97142.53;4952488;28;20237;-55
2022/12/14 03:38:06;;;;;;;0.00;0.00;;;;;;;-2.63;100.00;97144.56;4965575;28;20235;-52
2022/12/14 03:40:38;;;;;;;0.03;0.03;;;;;;;-2.71;100.00;97132.34;4962587;28;20237;-53
2022/12/14 03:43:15;;;;;;;0.00;0.00;;;;;;;-2.81;100.00;97133.88;4965106;28;20235;-53
2022/12/14 03:45:48;;;;;;;0.00;0.00;;;;;;;-2.83;100.00;97136.50;4962093;28;20298;-52
2022/12/14 03:48:29;;;;;;;0.03;0.03;;;;;;;-2.82;100.00;97130.50;4966150;28;20242;-53
2022/12/14 03:51:05;;;;;;;0.00;0.00;;;;;;;-3.00;100.00;97118.97;4960882;28;20759;-52
2022/12/14 03:53:41;;;;;;;0.07;0.07;;;;;;;-2.93;100.00;97124.47;4961883;28;20221;-52
2022/12/14 03:56:15;;;;;;;0.07;0.07;;;;;;;-2.92;100.00;97114.16;4945474;28;20226;-52
2022/12/14 03:58:51;;;;;;;0.00;0.00;;;;;;;-2.88;100.00;97130.91;4959798;28;20310;-53
2022/12/14 04:01:26;;;;;;;0.10;0.10;;;;;;;-2.86;100.00;97128.25;4955787;28;20643;-52
2022/12/14 04:04:00;;;;;;;0.10;0.10;;;;;;;-2.84;100.00;97122.13;4953598;28;20840;-52
2022/12/14 04:06:34;;;;;;;0.00;0.00;;;;;;;-2.85;100.00;97129.88;4966395;28;20229;-53
2022/12/14 04:09:07;;;;;;;0.00;0.00;;;;;;;-2.84;100.00;97124.66;4963388;28;20578;-54
2022/12/14 04:20:13;;;;;;;0.00;0.00;;;;;;;-3.00;100.00;97111.28;4974086;28;20235;-52
2022/12/14 04:22:46;;;;;;;0.10;0.10;;;;;;;-2.91;100.00;97110.69;4963829;28;20289;-52
2022/12/14 04:28:07;;;;;;;0.00;0.00;;;;;;;-3.00;100.00;97106.19;4966743;28;20660;-54
2022/12/14 04:36:11;;;;;;;0.03;0.03;;;;;;;-3.09;100.00;97109.34;4957102;28;20248;-52
2022/12/14 04:38:40;;;;;;;0.00;0.00;;;;;;;-3.24;100.00;97101.00;4955662;28;20265;-51
2022/12/14 04:41:12;;;;;;;0.00;0.00;;;;;;;-3.18;100.00;97109.06;4955881;28;20241;-54
2022/12/14 04:43:45;;;;;;;0.00;0.00;;;;;;;-3.18;100.00;97101.41;4955307;28;20592;-51
2022/12/14 04:46:13;;;;;;;0.00;0.00;;;;;;;-3.12;100.00;97106.09;4958068;28;20308;-53
2022/12/14 04:48:45;;;;;;;0.03;0.03;;;;;;;-3.09;100.00;97097.44;4955981;28;20355;-51
2022/12/14 04:51:19;;;;;;;0.00;0.00;;;;;;;-3.09;100.00;97091.50;4958441;28;20231;-54
2022/12/14 04:53:50;;;;;;;0.00;0.00;;;;;;;-3.06;100.00;97097.22;4955372;28;20236;-53
2022/12/14 04:56:20;;;;;;;0.00;0.00;;;;;;;-3.00;100.00;97091.69;4959490;28;20225;-52
2022/12/14 04:58:47;;;;;;;0.00;0.00;;;;;;;-2.95;100.00;97096.47;4955800;28;20702;-53
2022/12/14 05:01:30;;;;;;;0.00;0.00;;;;;;;-2.93;100.00;97104.06;4957218;28;20233;-52
2022/12/14 05:04:03;;;;;;;0.03;0.03;;;;;;;-2.94;100.00;97100.69;4955311;28;20287;-52
2022/12/14 05:06:37;;;;;;;0.00;0.00;;;;;;;-2.89;100.00;97098.63;4955511;28;20703;-53
2022/12/14 05:09:12;;;;;;;0.00;0.00;;;;;;;-2.92;100.00;97098.03;4956788;28;20247;-53
2022/12/14 05:11:46;;;;;;;0.00;0.00;;;;;;;-2.86;100.00;97107.84;4955142;28;20280;-54
2022/12/14 05:14:20;;;;;;;0.00;0.00;;;;;;;-2.85;100.00;97100.06;4957469;28;20233;-54
2022/12/14 05:16:49;;;;;;;0.00;0.00;;;;;;;-2.85;100.00;97099.25;4954368;28;20306;-52
2022/12/14 05:19:15;;;;;;;0.00;0.00;;;;;;;-2.92;100.00;97088.63;4957479;28;20216;-53
2022/12/14 05:21:49;;;;;;;0.00;0.00;;;;;;;-2.91;100.00;97081.78;4951153;28;20247;-52
2022/12/14 05:24:17;;;;;;;0.00;0.00;;;;;;;-2.92;100.00;97088.63;4956320;28;20684;-53
2022/12/14 05:26:44;;;;;;;0.00;0.00;;;;;;;-2.89;100.00;97079.94;4953200;28;20227;-54
2022/12/14 05:29:10;;;;;;;0.00;0.00;;;;;;;-2.95;100.00;97070.94;4959183;28;20717;-55
2022/12/14 05:31:37;;;;;;;0.10;0.10;;;;;;;-2.89;100.00;97070.53;4950871;28;20294;-54
2022/12/14 05:34:04;;;;;;;0.00;0.00;;;;;;;-2.82;100.00;97063.28;4957685;28;20286;-52
2022/12/14 05:36:30;;;;;;;0.03;0.03;;;;;;;-2.78;100.00;97062.16;4956663;28;20231;-54
2022/12/14 05:38:58;;;;;;;0.00;0.00;;;;;;;-2.73;100.00;97046.50;4957489;28;20231;-53
2022/12/14 05:41:25;;;;;;;0.00;0.00;;;;;;;-2.71;100.00;97039.56;4957978;28;20231;-55
2022/12/14 05:43:51;;;;;;;0.03;0.03;;;;;;;-2.74;100.00;97043.16;4952677;28;20239;-55
2022/12/14 05:46:18;;;;;;;0.00;0.00;;;;;;;-2.71;100.00;97047.22;4957554;28;20279;-55
2022/12/14 05:48:44;;;;;;;0.00;0.00;;;;;;;-2.85;100.00;97054.09;4952977;28;20229;-52
2022/12/14 05:51:13;;;;;;;0.00;0.00;;;;;;;-2.85;100.00;97061.75;4958868;28;20228;-55
2022/12/14 05:53:40;;;;;;;0.10;0.10;;;;;;;-2.85;100.00;97060.94;4950243;28;20308;-53
2022/12/14 05:56:10;;;;;;;0.00;0.00;;;;;;;-2.85;100.00;97061.75;4956450;28;20592;-53
2022/12/14 05:58:37;;;;;;;0.00;0.00;;;;;;;-2.78;100.00;97059.59;4954285;28;20231;-52
2022/12/14 06:01:05;;;;;;;0.00;0.00;;;;;;;-2.77;100.00;97052.75;4956169;28;20287;-54
2022/12/14 06:03:32;;;;;;;0.00;0.00;;;;;;;-2.72;100.00;97048.13;4952878;28;20227;-53
2022/12/14 06:06:03;;;;;;;0.00;0.00;;;;;;;-2.71;100.00;97037.81;4955351;28;20656;-56
2022/12/14 06:08:33;;;;;;;0.00;0.00;;;;;;;-2.70;100.00;97034.34;4950368;28;20234;-53
2022/12/14 06:11:04;;;;;;;0.00;0.00;;;;;;;-2.69;100.00;97030.88;4956971;28;20245;-55
2022/12/14 06:13:35;;;;;;;0.00;0.00;;;;;;;-2.66;100.00;97034.94;4952569;28;20234;-55
2022/12/14 06:16:13;;;;;;;0.00;0.00;;;;;;;-2.70;100.00;97020.75;4955806;28;20299;-53
2022/12/14 06:18:45;;;;;;;0.00;0.00;;;;;;;-2.73;100.00;97026.91;4952051;28;20228;-52
2022/12/14 06:21:13;;;;;;;0.00;0.00;;;;;;;-2.67;100.00;97015.44;4954352;28;20241;-55
2022/12/14 06:23:40;;;;;;;0.00;0.00;;;;;;;-2.61;100.00;97003.94;4954569;28;20283;-55
2022/12/14 06:26:08;;;;;;;0.00;0.00;;;;;;;-2.56;100.00;97001.88;4955539;28;20707;-55
2022/12/14 06:28:36;;;;;;;0.07;0.07;;;;;;;-2.60;100.00;96996.19;4952147;28;20228;-55
2022/12/14 06:31:03;;;;;;;0.00;0.00;;;;;;;-2.55;100.00;96988.19;4953152;28;20241;-55
2022/12/14 06:33:32;;;;;;;0.00;0.00;;;;;;;-2.54;100.00;96974.50;4952254;28;20277;-53
2022/12/14 06:35:58;;;;;;;0.00;0.00;;;;;;;-2.52;100.00;96962.41;4954422;28;20240;-53
2022/12/14 06:38:25;;;;;;;0.00;0.00;;;;;;;-2.50;100.00;96950.34;4956516;28;20220;-52
2022/12/14 06:40:51;;;;;;;0.00;0.00;;;;;;;-2.48;100.00;96961.28;4950513;28;20240;-52
2022/12/14 06:43:19;;;;;;;0.00;0.00;;;;;;;-2.48;100.00;96966.38;4955861;28;20238;-53
2022/12/14 06:45:47;;;;;;;0.00;0.00;;;;;;;-2.42;100.00;96962.59;4955380;28;20312;-55
2022/12/14 06:48:14;;;;;;;0.00;0.00;;;;;;;-2.42;100.00;96954.94;4955275;28;20285;-53
2022/12/14 06:50:40;;;;;;;0.00;0.00;;;;;;;-2.40;100.00;96945.41;4954441;28;20547;-52
2022/12/14 06:53:07;;;;;;;0.00;0.00;;;;;;;-2.38;100.00;96946.13;4958764;28;20926;-53
2022/12/14 06:55:33;;;;;;;0.03;0.03;;;;;;;-2.34;100.00;96962.84;4952170;28;20232;-52
2022/12/14 06:58:00;;;;;;;0.00;0.00;;;;;;;-2.30;100.00;96956.59;4954946;28;20258;-55
2022/12/14 07:00:26;;;;;;;0.00;0.00;;;;;;;-2.29;100.00;96960.78;4955186;28;21014;-52
2022/12/14 07:02:54;;;;;;;0.00;0.00;;;;;;;-2.32;100.00;96955.91;4952652;28;20232;-54
2022/12/14 07:05:21;;;;;;;0.00;0.00;;;;;;;-2.41;100.00;96959.91;4957266;28;20289;-54
2022/12/14 07:07:47;;;;;;;0.10;0.10;;;;;;;-2.53;100.00;96956.50;4953745;28;20356;-52
2022/12/14 07:10:16;;;;;;;0.00;0.00;;;;;;;-2.52;100.00;96957.31;4955335;28;20315;-55
2022/12/14 07:12:43;;;;;;;0.00;0.00;;;;;;;-2.63;100.00;96964.94;4952830;28;20241;-54
2022/12/14 07:15:10;;;;;;;0.00;0.00;;;;;;;-2.67;100.00;96970.28;4954681;28;20287;-52
2022/12/14 07:17:37;;;;;;;0.00;0.00;;;;;;;-2.74;100.00;96971.63;4952286;28;20231;-55
2022/12/14 07:20:07;;;;;;;0.10;0.10;;;;;;;-2.76;100.00;96981.16;4955728;28;20247;-52
2022/12/14 07:22:35;;;;;;;0.00;0.00;;;;;;;-2.74;100.00;96973.34;4953862;28;21212;-54
2022/12/14 07:25:02;;;;;;;0.00;0.00;;;;;;;-2.72;100.00;96967.22;4956907;28;20263;-52
2022/12/14 07:27:31;;;;;;;0.00;0.00;;;;;;;-2.66;100.00;96948.09;4953036;28;20224;-54
2022/12/14 07:29:57;;;;;;;0.00;0.00;;;;;;;-2.68;100.00;96939.72;4954673;28;20238;-53
2022/12/14 07:32:24;;;;;;;0.00;0.00;;;;;;;-2.68;100.00;96943.09;4955979;28;20235;-52
2022/12/14 07:34:51;;;;;;;0.00;0.00;;;;;;;-2.61;100.00;96947.75;4951203;28;20302;-52
2022/12/14 07:37:19;;;;;;;0.00;0.00;;;;;;;-2.57;100.00;96944.88;4957699;28;20282;-53
2022/12/14 07:39:46;;;;;;;0.00;0.00;;;;;;;-2.53;100.00;96940.34;4952632;28;20891;-52
2022/12/14 07:42:12;;;;;;;0.00;0.00;;;;;;;-2.49;100.00;96948.63;4953780;28;20243;-52
2022/12/14 07:44:43;;;;;;;0.00;0.00;;;;;;;-2.53;100.00;96955.69;4950278;28;20235;-54
2022/12/14 07:47:09;;;;;;;0.00;0.00;;;;;;;-2.64;100.00;96960.75;4954938;28;20611;-53
2022/12/14 07:49:36;;;;;;;0.07;0.07;;;;;;;-2.72;100.00;96959.56;4948853;28;20227;-52
2022/12/14 07:52:03;;;;;;;0.00;0.00;;;;;;;-2.64;100.00;96965.84;4954357;28;20332;-54
2022/12/14 07:54:31;;;;;;;0.00;0.00;;;;;;;-2.56;100.00;96977.16;4948773;28;20234;-54
2022/12/14 07:56:58;;;;;;;0.10;0.10;;;;;;;-2.60;100.00;96975.75;4952810;28;20247;-54
2022/12/14 07:59:24;;;;;;;0.00;0.00;;;;;;;-2.60;100.00;96974.94;4952811;28;20681;-52
2022/12/14 08:01:52;;;;;;;0.00;0.00;;;;;;;-2.60;100.00;96965.53;4949312;28;20232;-52
2022/12/14 08:04:19;;;;;;;0.00;0.00;;;;;;;-2.57;100.00;96965.31;4951193;28;20228;-52
2022/12/14 08:06:47;;;;;;;0.00;0.00;;;;;;;-2.57;100.00;96965.31;4951365;28;20247;-54
2022/12/14 08:09:14;;;;;;;0.07;0.07;;;;;;;-2.55;100.00;96966.03;4953330;28;20229;-55
2022/12/14 08:11:42;;;;;;;0.00;0.00;;;;;;;-2.59;100.00;96963.78;4957519;28;20261;-55
2022/12/14 08:14:15;;;;;;;0.10;0.10;;;;;;;-2.69;100.00;96961.06;4954129;28;20700;-55
2022/12/14 08:16:43;;;;;;;0.00;0.00;;;;;;;-2.67;100.00;96954.94;4951295;28;20314;-55
2022/12/14 08:19:11;;;;;;;0.00;0.00;;;;;;;-2.70;100.00;96947.50;4951023;28;20232;-55
2022/12/14 08:21:37;;;;;;;0.10;0.10;;;;;;;-2.64;100.00;96951.34;4952050;28;20242;-53
2022/12/14 08:24:04;;;;;;;0.00;0.00;;;;;;;-2.50;100.00;96952.09;4953989;28;20241;-54
2022/12/14 08:26:31;;;;;;;0.00;0.00;;;;;;;-2.42;100.00;96942.16;4951258;28;20576;-52
2022/12/14 08:28:59;;;;;;;0.00;0.00;;;;;;;-2.33;100.00;96938.09;4952412;28;20239;-52
2022/12/14 08:31:27;;;;;;;0.00;0.00;;;;;;;-2.27;100.00;96935.94;4954455;28;20723;-54
2022/12/14 08:33:54;;;;;;;0.07;0.07;;;;;;;-2.21;100.00;96926.19;4950723;28;20260;-52
2022/12/14 08:36:25;;;;;;;0.00;0.00;;;;;;;-2.16;100.00;96931.78;4954367;28;20232;-54
2022/12/14 08:38:53;;;;;;;0.00;0.00;;;;;;;-2.10;100.00;96931.28;4951628;28;20232;-55
2022/12/14 08:41:21;;;;;;;0.00;0.00;;;;;;;-2.09;100.00;96927.81;4953933;28;20251;-52
2022/12/14 08:43:54;;;;;;;0.10;0.10;;;;;;;-2.10;100.00;96938.97;4946483;28;20320;-52
2022/12/14 08:46:23;;;;;;;0.00;0.00;;;;;;;-2.03;100.00;96927.34;4954068;28;20227;-52
2022/12/14 08:48:50;;;;;;;0.00;0.00;;;;;;;-1.98;100.00;96922.72;4951356;28;20228;-52
2022/12/14 08:51:17;;;;;;;0.10;0.10;;;;;;;-1.91;100.00;96925.66;4956760;28;20263;-53
2022/12/14 08:53:46;;;;;;;0.00;0.00;;;;;;;-1.89;100.00;96928.91;4952146;28;20694;-55
2022/12/14 08:56:16;;;;;;;0.00;0.00;;;;;;;-1.87;100.00;96926.22;4956598;28;20317;-54
2022/12/14 08:58:43;;;;;;;0.00;0.00;;;;;;;-1.94;100.00;96916.44;4966023;28;20809;-52
2022/12/14 09:01:12;;;;;;;0.00;0.00;;;;;;;-1.91;100.00;96912.03;4954819;28;20307;-54
2022/12/14 09:03:41;;;;;;;0.10;0.10;;;;;;;-1.91;100.00;96914.59;4953251;28;20268;-55
2022/12/14 09:06:10;;;;;;;0.00;0.00;;;;;;;-1.89;100.00;96916.13;4947496;28;20233;-53
2022/12/14 09:08:37;;;;;;;0.00;0.00;;;;;;;-1.87;100.00;96919.38;4954970;28;20248;-53
2022/12/14 09:11:05;;;;;;;0.00;0.00;;;;;;;-1.85;100.00;96929.47;4953936;28;20241;-52
2022/12/14 09:13:32;;;;;;;0.00;0.00;;;;;;;-1.91;100.00;96922.25;4953355;28;20228;-53
2022/12/14 09:16:00;;;;;;;0.00;0.00;;;;;;;-2.00;100.00;96928.88;4956510;28;20793;-52
2022/12/14 09:18:28;;;;;;;0.00;0.00;;;;;;;-1.96;100.00;96935.41;4957329;28;20236;-52
2022/12/14 09:20:56;;;;;;;0.00;0.00;;;;;;;-1.99;100.00;96950.97;4953134;28;20228;-54
2022/12/14 09:23:24;;;;;;;0.00;0.00;;;;;;;-2.12;100.00;96951.06;4954629;28;20228;-55
2022/12/14 09:25:59;;;;;;;0.00;0.00;;;;;;;-2.12;100.00;96956.19;4954699;28;20240;-53
2022/12/14 09:28:27;;;;;;;0.00;0.00;;;;;;;-2.17;100.00;96958.25;4956886;28;20307;-52
2022/12/14 09:30:57;;;;;;;0.00;0.00;;;;;;;-2.11;100.00;96955.22;4954795;28;20936;-54
2022/12/14 09:33:24;;;;;;;0.00;0.00;;;;;;;-2.13;100.00;96957.91;4955142;28;20252;-55
2022/12/14 09:35:51;;;;;;;0.00;0.00;;;;;;;-2.00;100.00;96946.78;4953853;28;20239;-56
2022/12/14 09:38:20;;;;;;;0.00;0.00;;;;;;;-2.02;100.00;96953.75;4953946;28;20248;-56
2022/12/14 09:40:53;;;;;;;0.00;0.00;;;;;;;-1.99;100.00;96966.31;4952513;28;20336;-53
2022/12/14 09:43:33;;;;;;;0.00;0.00;;;;;;;-2.04;100.00;96968.41;4955026;28;20701;-53
2022/12/14 09:46:09;;;;;;;0.00;0.00;;;;;;;-1.97;100.00;96961.91;4950625;28;20239;-55
2022/12/14 09:48:36;;;;;;;0.10;0.10;;;;;;;-2.03;100.00;96952.94;4952190;28;20617;-54
2022/12/14 09:51:03;;;;;;;0.00;0.00;;;;;;;-1.97;100.00;96949.13;4957121;28;20406;-52
2022/12/14 09:53:31;;;;;;;0.00;0.00;;;;;;;-1.87;100.00;96941.56;4954048;28;20231;-52
2022/12/14 09:55:58;;;;;;;0.00;0.00;;;;;;;-1.86;100.00;96932.97;4952278;28;20247;-55
2022/12/14 09:58:27;;;;;;;0.00;0.00;;;;;;;-1.76;100.00;96933.09;4957330;28;20224;-53
2022/12/14 10:01:00;;;;;;;0.00;0.00;;;;;;;-1.74;100.00;96936.38;4952609;28;20227;-53
2022/12/14 10:03:49;;;;;;;0.10;0.10;;;;;;;-1.77;100.00;96946.81;4953585;28;20591;-54
2022/12/14 10:06:31;;;;;;;0.00;0.00;;;;;;;-1.76;100.00;96949.25;4954954;28;20336;-54
2022/12/14 10:09:08;;;;;;;0.00;0.00;;;;;;;-1.69;100.00;96954.75;4952362;28;20238;-52
2022/12/14 10:11:44;;;;;;;0.00;0.00;;;;;;;-1.58;100.00;96956.47;4952960;28;20734;-53
2022/12/14 10:14:19;;;;;;;0.10;0.10;;;;;;;-1.54;100.00;96956.13;4953934;28;20240;-55
2022/12/14 10:16:55;;;;;;;0.00;0.00;;;;;;;-1.54;100.00;96963.00;4951018;28;20258;-55
2022/12/14 10:19:32;;;;;;;0.00;0.00;;;;;;;-1.47;100.00;96956.50;4955284;28;20235;-52
2022/12/14 10:22:04;;;;;;;0.00;0.00;;;;;;;-1.50;100.00;96962.63;4955460;28;20734;-52
2022/12/14 10:24:36;;;;;;;0.10;0.10;;;;;;;-1.31;100.00;96960.44;4950500;28;20229;-53
2022/12/14 10:27:06;;;;;;;0.10;0.10;;;;;;;-1.11;100.00;96964.03;4952837;28;20267;-53
2022/12/14 10:29:37;;;;;;;0.00;0.00;;;;;;;-1.27;100.00;96977.19;4950909;28;20238;-52
2022/12/14 10:32:13;;;;;;;0.00;0.00;;;;;;;-1.39;100.00;96979.75;4954944;28;20241;-52
2022/12/14 10:34:42;;;;;;;0.00;0.00;;;;;;;-1.56;100.00;96972.53;4951219;28;20227;-52
2022/12/14 10:37:21;;;;;;;0.00;0.00;;;;;;;-1.57;100.00;96968.34;4953378;28;20597;-52
2022/12/14 10:39:58;;;;;;;0.00;0.00;;;;;;;-1.57;100.00;96970.91;4952492;28;20890;-52
2022/12/14 10:42:31;;;;;;;0.00;0.00;;;;;;;-1.50;100.00;96964.41;4949852;28;20228;-55
2022/12/14 10:45:10;;;;;;;0.00;0.00;;;;;;;-1.48;100.00;96970.22;4950808;28;20238;-52
2022/12/14 10:47:40;;;;;;;0.10;0.10;;;;;;;-1.46;100.00;96968.34;4950550;28;20283;-55
2022/12/14 10:50:19;;;;;;;0.00;0.00;;;;;;;-1.20;100.00;96965.56;4955330;28;20290;-51
2022/12/14 10:52:49;;;;;;;0.00;0.00;;;;;;;-1.05;100.00;96969.47;4953132;28;21220;-52
2022/12/14 10:55:21;;;;;;;0.00;0.00;;;;;;;-0.97;100.00;96970.63;4954030;28;20220;-53
2022/12/14 10:57:48;;;;;;;0.00;0.00;;;;;;;-0.97;100.00;96970.63;4948179;28;20230;-53
2022/12/14 11:00:17;;;;;;;0.00;0.00;;;;;;;-1.06;100.00;96965.28;4962859;28;20659;-52
2022/12/14 11:02:45;;;;;;;0.00;0.00;;;;;;;-1.06;100.00;96957.59;4951845;28;20236;-52
2022/12/14 11:05:22;;;;;;;0.00;0.00;;;;;;;-0.88;100.00;96949.41;4953713;28;20695;-54
2022/12/14 11:07:49;;;;;;;0.00;0.00;;;;;;;-0.72;100.00;96953.34;4952669;28;20316;-52
2022/12/14 11:10:18;;;;;;;0.00;0.00;;;;;;;-0.54;100.00;96954.44;4957108;28;20312;-54
2022/12/14 11:12:58;;;;;;;0.00;0.00;;;;;;;-0.36;100.00;96953.91;4953510;28;20241;-55
2022/12/14 11:15:29;;;;;;;0.00;0.00;;;;;;;-0.27;99.49;96952.34;4951820;28;20936;-55
2022/12/14 11:18:01;;;;;;;0.00;0.00;;;;;;;-0.33;97.42;96956.22;4940586;28;20228;-52
2022/12/14 11:20:28;;;;;;;0.00;0.00;;;;;;;-0.34;96.63;96957.16;4954991;28;20221;-52
2022/12/14 11:22:57;;;;;;;0.00;0.00;;;;;;;-0.34;96.35;96941.78;4952711;28;20251;-52
2022/12/14 11:25:38;;;;;;;0.00;0.00;;;;;;;-0.41;96.60;96956.03;4955329;28;20234;-54
2022/12/14 11:28:22;;;;;;;0.00;0.00;;;;;;;-0.17;96.82;96950.66;4950418;28;20252;-55
2022/12/14 11:30:54;;;;;;;0.00;0.00;;;;;;;-0.06;95.88;96962.63;4951738;28;20256;-52
2022/12/14 11:33:22;;;;;;;0.00;0.00;;;;;;;0.06;93.72;96965.94;4951852;28;20233;-52
2022/12/14 11:35:52;;;;;;;0.10;0.10;;;;;;;-0.22;93.15;96976.69;4952301;28;20238;-52
2022/12/14 11:38:19;;;;;;;0.00;0.00;;;;;;;-0.46;93.82;96975.16;4962219;28;20248;-52
2022/12/14 11:40:47;;;;;;;0.00;0.00;;;;;;;-0.62;95.82;96977.31;4951281;28;20649;-53
2022/12/14 11:43:25;;;;;;;0.00;0.00;;;;;;;-0.64;97.00;96971.50;4954063;28;20698;-53
2022/12/14 11:45:53;;;;;;;0.00;0.00;;;;;;;-0.57;96.63;96974.41;4950320;28;20248;-53
2022/12/14 11:48:22;;;;;;;0.00;0.00;;;;;;;-0.53;96.50;96966.31;4955380;28;20234;-55
2022/12/14 11:50:51;;;;;;;0.00;0.00;;;;;;;-0.69;95.47;96963.34;4950769;28;20311;-55
2022/12/14 11:53:20;;;;;;;0.00;0.00;;;;;;;-0.77;96.35;96980.13;4954281;28;20635;-54
2022/12/14 11:55:54;;;;;;;0.00;0.00;;;;;;;-0.82;96.91;96978.88;4950928;28;20229;-55
2022/12/14 11:58:25;;;;;;;0.00;0.00;;;;;;;-0.81;97.26;96976.19;4954561;28;20234;-55